sensor_id;sensor_type;location;lat;lon;timestamp;P1;durP1;ratioP1;P2;durP2;ratioP2
66727;SDS011;53641;44.274;19.890;2022-10-16T00:00:16;16.30;;;10.05;;
66727;SDS011;53641;44.274;19.890;2022-10-16T00:02:45;16.70;;;10.07;;
66727;SDS011;53641;44.274;19.890;2022-10-16T00:05:19;16.30;;;9.85;;
66727;SDS011;53641;44.274;19.890;2022-10-16T00:08:07;17.80;;;9.88;;
66727;SDS011;53641;44.274;19.890;2022-10-16T00:10:52;14.18;;;9.18;;
66727;SDS011;53641;44.274;19.890;2022-10-16T00:13:39;16.58;;;8.88;;
66727;SDS011;53641;44.274;19.890;2022-10-16T00:16:12;14.73;;;8.93;;
66727;SDS011;53641;44.274;19.890;2022-10-16T00:18:38;16.45;;;9.57;;
66727;SDS011;53641;44.274;19.890;2022-10-16T00:21:10;14.63;;;9.38;;
66727;SDS011;53641;44.274;19.890;2022-10-16T00:23:38;14.23;;;8.45;;
66727;SDS011;53641;44.274;19.890;2022-10-16T00:26:48;14.35;;;8.40;;
66727;SDS011;53641;44.274;19.890;2022-10-16T00:30:03;12.43;;;8.55;;
66727;SDS011;53641;44.274;19.890;2022-10-16T00:32:49;14.13;;;9.13;;
66727;SDS011;53641;44.274;19.890;2022-10-16T00:35:20;14.43;;;9.32;;
66727;SDS011;53641;44.274;19.890;2022-10-16T00:37:54;15.65;;;8.40;;
66727;SDS011;53641;44.274;19.890;2022-10-16T00:40:39;15.85;;;8.30;;
66727;SDS011;53641;44.274;19.890;2022-10-16T00:43:14;12.27;;;8.02;;
66727;SDS011;53641;44.274;19.890;2022-10-16T00:46:47;12.23;;;7.60;;
66727;SDS011;53641;44.274;19.890;2022-10-16T00:51:48;16.50;;;8.25;;
66727;SDS011;53641;44.274;19.890;2022-10-16T00:54:23;11.50;;;7.55;;
66727;SDS011;53641;44.274;19.890;2022-10-16T00:56:55;14.40;;;7.30;;
66727;SDS011;53641;44.274;19.890;2022-10-16T00:59:47;10.48;;;6.88;;
66727;SDS011;53641;44.274;19.890;2022-10-16T01:02:37;11.57;;;6.70;;
66727;SDS011;53641;44.274;19.890;2022-10-16T01:05:06;10.68;;;6.78;;
66727;SDS011;53641;44.274;19.890;2022-10-16T01:07:45;14.43;;;6.80;;
66727;SDS011;53641;44.274;19.890;2022-10-16T01:10:52;13.52;;;6.95;;
66727;SDS011;53641;44.274;19.890;2022-10-16T01:13:42;11.77;;;6.53;;
66727;SDS011;53641;44.274;19.890;2022-10-16T01:16:54;11.88;;;6.70;;
66727;SDS011;53641;44.274;19.890;2022-10-16T01:19:56;10.52;;;6.57;;
66727;SDS011;53641;44.274;19.890;2022-10-16T01:26:06;12.40;;;5.85;;
66727;SDS011;53641;44.274;19.890;2022-10-16T01:28:46;12.73;;;6.07;;
66727;SDS011;53641;44.274;19.890;2022-10-16T01:31:41;8.32;;;5.78;;
66727;SDS011;53641;44.274;19.890;2022-10-16T01:34:55;12.90;;;6.00;;
66727;SDS011;53641;44.274;19.890;2022-10-16T01:40:47;11.70;;;6.13;;
66727;SDS011;53641;44.274;19.890;2022-10-16T01:43:30;8.07;;;5.43;;
66727;SDS011;53641;44.274;19.890;2022-10-16T01:46:26;10.40;;;5.80;;
66727;SDS011;53641;44.274;19.890;2022-10-16T01:49:00;13.18;;;6.05;;
66727;SDS011;53641;44.274;19.890;2022-10-16T01:51:38;14.20;;;6.00;;
66727;SDS011;53641;44.274;19.890;2022-10-16T01:54:13;8.38;;;5.40;;
66727;SDS011;53641;44.274;19.890;2022-10-16T01:56:53;9.15;;;5.75;;
66727;SDS011;53641;44.274;19.890;2022-10-16T01:59:33;10.40;;;5.65;;
66727;SDS011;53641;44.274;19.890;2022-10-16T02:02:07;12.57;;;5.28;;
66727;SDS011;53641;44.274;19.890;2022-10-16T02:04:53;11.05;;;5.88;;
66727;SDS011;53641;44.274;19.890;2022-10-16T02:07:35;9.88;;;5.35;;
66727;SDS011;53641;44.274;19.890;2022-10-16T02:10:07;9.35;;;5.82;;
66727;SDS011;53641;44.274;19.890;2022-10-16T02:13:00;10.82;;;5.55;;
66727;SDS011;53641;44.274;19.890;2022-10-16T02:15:41;9.18;;;5.82;;
66727;SDS011;53641;44.274;19.890;2022-10-16T02:18:17;10.73;;;5.85;;
66727;SDS011;53641;44.274;19.890;2022-10-16T02:21:10;11.20;;;7.00;;
66727;SDS011;53641;44.274;19.890;2022-10-16T02:28:00;11.63;;;6.43;;
66727;SDS011;53641;44.274;19.890;2022-10-16T02:30:31;9.00;;;5.53;;
66727;SDS011;53641;44.274;19.890;2022-10-16T02:33:05;10.48;;;7.07;;
66727;SDS011;53641;44.274;19.890;2022-10-16T02:35:41;9.35;;;6.32;;
66727;SDS011;53641;44.274;19.890;2022-10-16T02:38:11;12.10;;;5.55;;
66727;SDS011;53641;44.274;19.890;2022-10-16T02:40:37;11.50;;;5.72;;
66727;SDS011;53641;44.274;19.890;2022-10-16T02:43:09;11.32;;;6.07;;
66727;SDS011;53641;44.274;19.890;2022-10-16T02:48:34;9.30;;;5.80;;
66727;SDS011;53641;44.274;19.890;2022-10-16T02:51:11;9.90;;;6.47;;
66727;SDS011;53641;44.274;19.890;2022-10-16T02:53:44;12.23;;;6.15;;
66727;SDS011;53641;44.274;19.890;2022-10-16T02:56:31;10.80;;;6.15;;
66727;SDS011;53641;44.274;19.890;2022-10-16T03:04:19;10.70;;;6.95;;
66727;SDS011;53641;44.274;19.890;2022-10-16T03:06:53;11.55;;;7.35;;
66727;SDS011;53641;44.274;19.890;2022-10-16T03:09:52;11.52;;;7.13;;
66727;SDS011;53641;44.274;19.890;2022-10-16T03:12:30;10.65;;;6.65;;
66727;SDS011;53641;44.274;19.890;2022-10-16T03:15:02;13.80;;;7.03;;
66727;SDS011;53641;44.274;19.890;2022-10-16T03:17:39;11.13;;;7.30;;
66727;SDS011;53641;44.274;19.890;2022-10-16T03:20:12;15.77;;;7.03;;
66727;SDS011;53641;44.274;19.890;2022-10-16T03:22:41;14.90;;;7.18;;
66727;SDS011;53641;44.274;19.890;2022-10-16T03:25:16;13.50;;;7.85;;
66727;SDS011;53641;44.274;19.890;2022-10-16T03:27:45;10.77;;;7.03;;
66727;SDS011;53641;44.274;19.890;2022-10-16T03:30:18;21.05;;;7.72;;
66727;SDS011;53641;44.274;19.890;2022-10-16T03:32:47;14.18;;;7.70;;
66727;SDS011;53641;44.274;19.890;2022-10-16T03:35:19;12.57;;;7.40;;
66727;SDS011;53641;44.274;19.890;2022-10-16T03:38:12;17.90;;;7.55;;
66727;SDS011;53641;44.274;19.890;2022-10-16T03:40:40;13.32;;;7.68;;
66727;SDS011;53641;44.274;19.890;2022-10-16T03:43:09;14.73;;;7.80;;
66727;SDS011;53641;44.274;19.890;2022-10-16T03:45:38;17.30;;;8.60;;
66727;SDS011;53641;44.274;19.890;2022-10-16T03:48:15;17.45;;;8.93;;
66727;SDS011;53641;44.274;19.890;2022-10-16T03:50:52;16.60;;;9.48;;
66727;SDS011;53641;44.274;19.890;2022-10-16T03:53:24;18.83;;;8.40;;
66727;SDS011;53641;44.274;19.890;2022-10-16T03:55:57;12.07;;;7.70;;
66727;SDS011;53641;44.274;19.890;2022-10-16T03:58:50;13.63;;;7.32;;
66727;SDS011;53641;44.274;19.890;2022-10-16T04:01:27;12.98;;;6.85;;
66727;SDS011;53641;44.274;19.890;2022-10-16T04:03:55;10.45;;;6.07;;
66727;SDS011;53641;44.274;19.890;2022-10-16T04:06:25;10.10;;;6.50;;
66727;SDS011;53641;44.274;19.890;2022-10-16T04:08:58;9.40;;;6.45;;
66727;SDS011;53641;44.274;19.890;2022-10-16T04:11:29;13.88;;;7.07;;
66727;SDS011;53641;44.274;19.890;2022-10-16T04:14:01;13.32;;;7.10;;
66727;SDS011;53641;44.274;19.890;2022-10-16T04:16:32;14.85;;;7.15;;
66727;SDS011;53641;44.274;19.890;2022-10-16T04:19:00;10.20;;;7.00;;
66727;SDS011;53641;44.274;19.890;2022-10-16T04:21:29;11.02;;;6.45;;
66727;SDS011;53641;44.274;19.890;2022-10-16T04:23:57;9.00;;;6.50;;
66727;SDS011;53641;44.274;19.890;2022-10-16T04:26:23;10.48;;;5.95;;
66727;SDS011;53641;44.274;19.890;2022-10-16T04:32:02;12.60;;;6.20;;
66727;SDS011;53641;44.274;19.890;2022-10-16T04:34:34;10.57;;;6.32;;
66727;SDS011;53641;44.274;19.890;2022-10-16T04:39:37;16.80;;;9.75;;
66727;SDS011;53641;44.274;19.890;2022-10-16T04:42:23;14.40;;;10.20;;
66727;SDS011;53641;44.274;19.890;2022-10-16T04:44:54;16.88;;;9.23;;
66727;SDS011;53641;44.274;19.890;2022-10-16T04:47:22;15.57;;;9.07;;
66727;SDS011;53641;44.274;19.890;2022-10-16T04:49:54;16.33;;;8.38;;
66727;SDS011;53641;44.274;19.890;2022-10-16T04:52:35;12.43;;;7.97;;
66727;SDS011;53641;44.274;19.890;2022-10-16T04:57:46;13.73;;;7.15;;
66727;SDS011;53641;44.274;19.890;2022-10-16T05:00:12;12.80;;;7.78;;
66727;SDS011;53641;44.274;19.890;2022-10-16T05:03:01;16.30;;;7.75;;
66727;SDS011;53641;44.274;19.890;2022-10-16T05:05:33;17.33;;;6.18;;
66727;SDS011;53641;44.274;19.890;2022-10-16T05:08:07;12.15;;;6.50;;
66727;SDS011;53641;44.274;19.890;2022-10-16T05:10:40;11.80;;;5.85;;
66727;SDS011;53641;44.274;19.890;2022-10-16T05:13:09;8.90;;;5.78;;
66727;SDS011;53641;44.274;19.890;2022-10-16T05:15:41;10.43;;;5.70;;
66727;SDS011;53641;44.274;19.890;2022-10-16T05:18:11;9.60;;;5.90;;
66727;SDS011;53641;44.274;19.890;2022-10-16T05:20:40;8.65;;;6.22;;
66727;SDS011;53641;44.274;19.890;2022-10-16T05:23:10;13.52;;;7.10;;
66727;SDS011;53641;44.274;19.890;2022-10-16T05:25:51;11.20;;;6.95;;
66727;SDS011;53641;44.274;19.890;2022-10-16T05:31:15;13.90;;;8.00;;
66727;SDS011;53641;44.274;19.890;2022-10-16T05:33:50;13.60;;;8.13;;
66727;SDS011;53641;44.274;19.890;2022-10-16T05:36:19;14.32;;;8.20;;
66727;SDS011;53641;44.274;19.890;2022-10-16T05:38:51;16.23;;;7.55;;
66727;SDS011;53641;44.274;19.890;2022-10-16T05:41:28;12.82;;;7.80;;
66727;SDS011;53641;44.274;19.890;2022-10-16T05:43:59;14.88;;;8.25;;
66727;SDS011;53641;44.274;19.890;2022-10-16T05:46:51;11.80;;;7.45;;
66727;SDS011;53641;44.274;19.890;2022-10-16T05:49:17;16.42;;;8.80;;
66727;SDS011;53641;44.274;19.890;2022-10-16T05:51:54;16.05;;;8.38;;
66727;SDS011;53641;44.274;19.890;2022-10-16T05:54:37;17.77;;;8.98;;
66727;SDS011;53641;44.274;19.890;2022-10-16T05:57:16;18.25;;;10.00;;
66727;SDS011;53641;44.274;19.890;2022-10-16T05:59:53;16.63;;;9.65;;
66727;SDS011;53641;44.274;19.890;2022-10-16T06:02:19;21.20;;;11.25;;
66727;SDS011;53641;44.274;19.890;2022-10-16T06:05:09;17.38;;;10.40;;
66727;SDS011;53641;44.274;19.890;2022-10-16T06:07:45;13.57;;;8.93;;
66727;SDS011;53641;44.274;19.890;2022-10-16T06:10:16;12.73;;;8.70;;
66727;SDS011;53641;44.274;19.890;2022-10-16T06:12:45;16.30;;;10.32;;
66727;SDS011;53641;44.274;19.890;2022-10-16T06:15:16;15.98;;;9.20;;
66727;SDS011;53641;44.274;19.890;2022-10-16T06:17:55;13.20;;;7.80;;
66727;SDS011;53641;44.274;19.890;2022-10-16T06:20:55;13.60;;;8.25;;
66727;SDS011;53641;44.274;19.890;2022-10-16T06:23:31;15.15;;;8.30;;
66727;SDS011;53641;44.274;19.890;2022-10-16T06:26:06;12.23;;;7.30;;
66727;SDS011;53641;44.274;19.890;2022-10-16T06:29:01;12.63;;;8.00;;
66727;SDS011;53641;44.274;19.890;2022-10-16T06:32:29;13.52;;;7.43;;
66727;SDS011;53641;44.274;19.890;2022-10-16T06:35:36;15.38;;;8.48;;
66727;SDS011;53641;44.274;19.890;2022-10-16T06:38:22;11.07;;;7.35;;
66727;SDS011;53641;44.274;19.890;2022-10-16T06:48:34;17.52;;;9.57;;
66727;SDS011;53641;44.274;19.890;2022-10-16T06:51:54;16.23;;;10.48;;
66727;SDS011;53641;44.274;19.890;2022-10-16T07:06:22;14.80;;;10.50;;
66727;SDS011;53641;44.274;19.890;2022-10-16T07:23:04;15.45;;;11.32;;
66727;SDS011;53641;44.274;19.890;2022-10-16T07:29:30;19.55;;;12.30;;
66727;SDS011;53641;44.274;19.890;2022-10-16T07:43:08;14.63;;;10.73;;
66727;SDS011;53641;44.274;19.890;2022-10-16T07:46:49;16.17;;;8.35;;
66727;SDS011;53641;44.274;19.890;2022-10-16T08:16:58;10.80;;;6.90;;
66727;SDS011;53641;44.274;19.890;2022-10-16T08:23:08;13.77;;;8.73;;
66727;SDS011;53641;44.274;19.890;2022-10-16T08:26:13;15.88;;;9.43;;
66727;SDS011;53641;44.274;19.890;2022-10-16T08:28:57;13.88;;;8.13;;
66727;SDS011;53641;44.274;19.890;2022-10-16T08:32:05;12.88;;;7.10;;
66727;SDS011;53641;44.274;19.890;2022-10-16T08:44:16;12.55;;;7.40;;
66727;SDS011;53641;44.274;19.890;2022-10-16T08:50:25;10.50;;;6.63;;
66727;SDS011;53641;44.274;19.890;2022-10-16T08:53:09;13.15;;;6.85;;
66727;SDS011;53641;44.274;19.890;2022-10-16T08:56:22;12.35;;;5.50;;
66727;SDS011;53641;44.274;19.890;2022-10-16T08:58:54;7.05;;;5.35;;
66727;SDS011;53641;44.274;19.890;2022-10-16T09:04:57;9.18;;;4.57;;
66727;SDS011;53641;44.274;19.890;2022-10-16T09:12:07;12.10;;;5.75;;
66727;SDS011;53641;44.274;19.890;2022-10-16T09:15:24;8.13;;;5.60;;
66727;SDS011;53641;44.274;19.890;2022-10-16T09:18:16;9.05;;;4.90;;
66727;SDS011;53641;44.274;19.890;2022-10-16T09:23:49;7.10;;;5.22;;
66727;SDS011;53641;44.274;19.890;2022-10-16T09:27:09;7.78;;;5.55;;
66727;SDS011;53641;44.274;19.890;2022-10-16T09:30:06;10.90;;;5.20;;
66727;SDS011;53641;44.274;19.890;2022-10-16T09:43:40;6.15;;;3.90;;
66727;SDS011;53641;44.274;19.890;2022-10-16T09:47:12;6.35;;;4.50;;
66727;SDS011;53641;44.274;19.890;2022-10-16T09:50:03;11.10;;;4.65;;
66727;SDS011;53641;44.274;19.890;2022-10-16T10:03:12;9.10;;;4.90;;
66727;SDS011;53641;44.274;19.890;2022-10-16T10:05:48;10.02;;;4.60;;
66727;SDS011;53641;44.274;19.890;2022-10-16T10:09:03;6.60;;;3.75;;
66727;SDS011;53641;44.274;19.890;2022-10-16T10:15:43;7.50;;;4.32;;
66727;SDS011;53641;44.274;19.890;2022-10-16T10:22:40;5.30;;;3.80;;
66727;SDS011;53641;44.274;19.890;2022-10-16T10:26:20;8.48;;;5.05;;
66727;SDS011;53641;44.274;19.890;2022-10-16T10:28:59;7.68;;;3.72;;
66727;SDS011;53641;44.274;19.890;2022-10-16T10:38:45;6.43;;;3.47;;
66727;SDS011;53641;44.274;19.890;2022-10-16T10:42:35;5.97;;;3.65;;
66727;SDS011;53641;44.274;19.890;2022-10-16T10:45:29;10.30;;;4.00;;
66727;SDS011;53641;44.274;19.890;2022-10-16T10:49:00;9.00;;;4.65;;
66727;SDS011;53641;44.274;19.890;2022-10-16T10:55:37;6.68;;;4.50;;
66727;SDS011;53641;44.274;19.890;2022-10-16T10:59:02;7.50;;;4.85;;
66727;SDS011;53641;44.274;19.890;2022-10-16T11:02:52;7.30;;;4.30;;
66727;SDS011;53641;44.274;19.890;2022-10-16T11:13:10;9.93;;;5.07;;
66727;SDS011;53641;44.274;19.890;2022-10-16T11:19:43;7.45;;;3.55;;
66727;SDS011;53641;44.274;19.890;2022-10-16T11:54:14;7.63;;;4.65;;
66727;SDS011;53641;44.274;19.890;2022-10-16T11:58:45;9.20;;;4.20;;
66727;SDS011;53641;44.274;19.890;2022-10-16T12:01:44;12.98;;;4.75;;
66727;SDS011;53641;44.274;19.890;2022-10-16T12:05:09;9.02;;;4.32;;
66727;SDS011;53641;44.274;19.890;2022-10-16T12:11:42;7.63;;;3.95;;
66727;SDS011;53641;44.274;19.890;2022-10-16T12:14:58;5.93;;;3.80;;
66727;SDS011;53641;44.274;19.890;2022-10-16T12:21:39;6.90;;;4.10;;
66727;SDS011;53641;44.274;19.890;2022-10-16T12:25:33;7.03;;;3.70;;
66727;SDS011;53641;44.274;19.890;2022-10-16T12:31:47;5.38;;;3.63;;
66727;SDS011;53641;44.274;19.890;2022-10-16T12:34:38;9.63;;;4.03;;
66727;SDS011;53641;44.274;19.890;2022-10-16T12:44:23;5.75;;;3.55;;
66727;SDS011;53641;44.274;19.890;2022-10-16T12:48:18;6.85;;;4.28;;
66727;SDS011;53641;44.274;19.890;2022-10-16T12:55:01;5.15;;;3.80;;
66727;SDS011;53641;44.274;19.890;2022-10-16T12:58:54;6.68;;;3.90;;
66727;SDS011;53641;44.274;19.890;2022-10-16T13:02:09;7.47;;;3.80;;
66727;SDS011;53641;44.274;19.890;2022-10-16T13:09:00;6.65;;;3.95;;
66727;SDS011;53641;44.274;19.890;2022-10-16T13:29:31;10.18;;;4.72;;
66727;SDS011;53641;44.274;19.890;2022-10-16T13:36:20;9.50;;;4.13;;
66727;SDS011;53641;44.274;19.890;2022-10-16T13:40:11;6.88;;;4.13;;
66727;SDS011;53641;44.274;19.890;2022-10-16T13:43:20;5.47;;;4.07;;
66727;SDS011;53641;44.274;19.890;2022-10-16T13:46:42;9.55;;;4.78;;
66727;SDS011;53641;44.274;19.890;2022-10-16T13:49:24;7.43;;;3.97;;
66727;SDS011;53641;44.274;19.890;2022-10-16T13:55:54;7.78;;;3.90;;
66727;SDS011;53641;44.274;19.890;2022-10-16T13:59:22;7.10;;;4.38;;
66727;SDS011;53641;44.274;19.890;2022-10-16T14:02:34;7.80;;;4.13;;
66727;SDS011;53641;44.274;19.890;2022-10-16T14:22:48;8.07;;;4.68;;
66727;SDS011;53641;44.274;19.890;2022-10-16T14:43:14;10.55;;;5.03;;
66727;SDS011;53641;44.274;19.890;2022-10-16T14:46:47;6.63;;;4.68;;
66727;SDS011;53641;44.274;19.890;2022-10-16T14:49:19;8.50;;;4.30;;
66727;SDS011;53641;44.274;19.890;2022-10-16T14:52:16;7.68;;;4.38;;
66727;SDS011;53641;44.274;19.890;2022-10-16T14:58:43;6.63;;;4.45;;
66727;SDS011;53641;44.274;19.890;2022-10-16T15:01:15;10.63;;;6.60;;
66727;SDS011;53641;44.274;19.890;2022-10-16T15:04:42;9.93;;;6.38;;
66727;SDS011;53641;44.274;19.890;2022-10-16T15:08:10;7.65;;;5.38;;
66727;SDS011;53641;44.274;19.890;2022-10-16T15:11:10;8.60;;;5.30;;
66727;SDS011;53641;44.274;19.890;2022-10-16T15:17:12;9.15;;;5.18;;
66727;SDS011;53641;44.274;19.890;2022-10-16T15:20:51;9.07;;;4.90;;
66727;SDS011;53641;44.274;19.890;2022-10-16T15:27:34;10.38;;;8.20;;
66727;SDS011;53641;44.274;19.890;2022-10-16T15:34:40;17.98;;;9.43;;
66727;SDS011;53641;44.274;19.890;2022-10-16T15:37:12;15.05;;;7.75;;
66727;SDS011;53641;44.274;19.890;2022-10-16T15:40:31;13.75;;;9.73;;
66727;SDS011;53641;44.274;19.890;2022-10-16T15:47:22;14.68;;;10.63;;
66727;SDS011;53641;44.274;19.890;2022-10-16T15:50:14;16.65;;;9.80;;
66727;SDS011;53641;44.274;19.890;2022-10-16T15:52:54;16.95;;;9.38;;
66727;SDS011;53641;44.274;19.890;2022-10-16T15:59:51;18.83;;;9.88;;
66727;SDS011;53641;44.274;19.890;2022-10-16T16:03:40;10.95;;;7.82;;
66727;SDS011;53641;44.274;19.890;2022-10-16T16:12:15;14.45;;;8.73;;
66727;SDS011;53641;44.274;19.890;2022-10-16T16:15:27;22.15;;;8.63;;
66727;SDS011;53641;44.274;19.890;2022-10-16T16:31:44;42.40;;;23.45;;
66727;SDS011;53641;44.274;19.890;2022-10-16T16:45:37;45.13;;;24.40;;
66727;SDS011;53641;44.274;19.890;2022-10-16T16:49:16;39.60;;;23.77;;
66727;SDS011;53641;44.274;19.890;2022-10-16T16:55:15;34.42;;;21.77;;
66727;SDS011;53641;44.274;19.890;2022-10-16T16:58:11;39.28;;;23.58;;
66727;SDS011;53641;44.274;19.890;2022-10-16T17:11:59;52.13;;;32.47;;
66727;SDS011;53641;44.274;19.890;2022-10-16T17:22:11;59.95;;;37.25;;
66727;SDS011;53641;44.274;19.890;2022-10-16T17:29:09;64.75;;;35.47;;
66727;SDS011;53641;44.274;19.890;2022-10-16T17:56:32;49.15;;;30.45;;
66727;SDS011;53641;44.274;19.890;2022-10-16T18:13:27;53.60;;;30.58;;
66727;SDS011;53641;44.274;19.890;2022-10-16T18:16:36;51.88;;;31.35;;
66727;SDS011;53641;44.274;19.890;2022-10-16T18:54:09;32.97;;;17.98;;
66727;SDS011;53641;44.274;19.890;2022-10-16T19:18:03;36.83;;;21.20;;
66727;SDS011;53641;44.274;19.890;2022-10-16T19:34:48;36.20;;;22.23;;
66727;SDS011;53641;44.274;19.890;2022-10-16T20:17:38;34.33;;;21.98;;
66727;SDS011;53641;44.274;19.890;2022-10-16T20:34:21;31.65;;;18.60;;
66727;SDS011;53641;44.274;19.890;2022-10-16T20:40:45;27.38;;;17.42;;
66727;SDS011;53641;44.274;19.890;2022-10-16T20:49:55;33.08;;;16.00;;
66727;SDS011;53641;44.274;19.890;2022-10-16T20:58:46;28.17;;;13.98;;
66727;SDS011;53641;44.274;19.890;2022-10-16T21:02:20;23.85;;;13.75;;
66727;SDS011;53641;44.274;19.890;2022-10-16T21:05:28;23.63;;;15.77;;
66727;SDS011;53641;44.274;19.890;2022-10-16T21:09:17;35.17;;;18.08;;
66727;SDS011;53641;44.274;19.890;2022-10-16T21:11:46;28.95;;;17.40;;
66727;SDS011;53641;44.274;19.890;2022-10-16T21:17:51;30.65;;;18.15;;
66727;SDS011;53641;44.274;19.890;2022-10-16T21:20:41;29.35;;;17.90;;
66727;SDS011;53641;44.274;19.890;2022-10-16T21:27:27;26.55;;;16.73;;
66727;SDS011;53641;44.274;19.890;2022-10-16T21:53:48;25.55;;;14.23;;
66727;SDS011;53641;44.274;19.890;2022-10-16T21:57:00;21.63;;;14.57;;
66727;SDS011;53641;44.274;19.890;2022-10-16T21:59:47;27.23;;;14.65;;
66727;SDS011;53641;44.274;19.890;2022-10-16T22:05:40;23.38;;;13.70;;
66727;SDS011;53641;44.274;19.890;2022-10-16T22:08:06;21.88;;;13.25;;
66727;SDS011;53641;44.274;19.890;2022-10-16T22:10:41;18.17;;;11.65;;
66727;SDS011;53641;44.274;19.890;2022-10-16T22:13:21;18.10;;;11.70;;
66727;SDS011;53641;44.274;19.890;2022-10-16T22:16:20;19.08;;;11.18;;
66727;SDS011;53641;44.274;19.890;2022-10-16T22:18:57;19.67;;;12.05;;
66727;SDS011;53641;44.274;19.890;2022-10-16T22:21:43;24.45;;;11.95;;
66727;SDS011;53641;44.274;19.890;2022-10-16T22:24:25;17.92;;;11.00;;
66727;SDS011;53641;44.274;19.890;2022-10-16T22:29:28;21.35;;;11.30;;
66727;SDS011;53641;44.274;19.890;2022-10-16T22:30:04;15.35;;;10.40;;
66727;SDS011;53641;44.274;19.890;2022-10-16T22:32:41;16.05;;;10.13;;
66727;SDS011;53641;44.274;19.890;2022-10-16T22:35:07;16.80;;;10.10;;
66727;SDS011;53641;44.274;19.890;2022-10-16T22:37:41;19.95;;;10.13;;
66727;SDS011;53641;44.274;19.890;2022-10-16T22:40:18;19.50;;;9.75;;
66727;SDS011;53641;44.274;19.890;2022-10-16T22:42:44;16.20;;;10.23;;
66727;SDS011;53641;44.274;19.890;2022-10-16T22:45:32;17.38;;;10.48;;
66727;SDS011;53641;44.274;19.890;2022-10-16T22:48:07;18.65;;;10.07;;
66727;SDS011;53641;44.274;19.890;2022-10-16T22:50:55;17.20;;;10.57;;
66727;SDS011;53641;44.274;19.890;2022-10-16T22:53:28;18.65;;;11.05;;
66727;SDS011;53641;44.274;19.890;2022-10-16T22:56:15;20.58;;;12.73;;
66727;SDS011;53641;44.274;19.890;2022-10-16T22:58:53;19.85;;;12.40;;
66727;SDS011;53641;44.274;19.890;2022-10-16T23:01:59;25.85;;;14.23;;
66727;SDS011;53641;44.274;19.890;2022-10-16T23:04:59;20.42;;;13.52;;
66727;SDS011;53641;44.274;19.890;2022-10-16T23:10:44;19.05;;;11.30;;
66727;SDS011;53641;44.274;19.890;2022-10-16T23:13:16;17.30;;;11.80;;
66727;SDS011;53641;44.274;19.890;2022-10-16T23:16:07;16.67;;;10.18;;
66727;SDS011;53641;44.274;19.890;2022-10-16T23:18:57;19.33;;;11.35;;
66727;SDS011;53641;44.274;19.890;2022-10-16T23:21:52;21.38;;;11.18;;
66727;SDS011;53641;44.274;19.890;2022-10-16T23:24:47;14.90;;;9.02;;
66727;SDS011;53641;44.274;19.890;2022-10-16T23:28:09;18.67;;;9.77;;
66727;SDS011;53641;44.274;19.890;2022-10-16T23:34:45;14.80;;;8.95;;
66727;SDS011;53641;44.274;19.890;2022-10-16T23:38:21;18.70;;;9.95;;
66727;SDS011;53641;44.274;19.890;2022-10-16T23:41:14;14.30;;;9.73;;
66727;SDS011;53641;44.274;19.890;2022-10-16T23:53:23;13.35;;;8.88;;
66727;SDS011;53641;44.274;19.890;2022-10-16T23:56:26;13.10;;;8.63;;
66727;SDS011;53641;44.274;19.890;2022-10-16T23:59:19;16.98;;;8.68;;
